createdAt,value
2022-11-10T00:00:57.395Z,13.50
2022-11-10T00:05:07.463Z,13.50
2022-11-10T00:09:36.095Z,13.50
2022-11-10T00:13:59.084Z,13.50
2022-11-10T00:18:08.697Z,13.50
2022-11-10T00:22:23.987Z,13.50
2022-11-10T00:26:42.346Z,13.50
2022-11-10T00:30:55.100Z,13.50
2022-11-10T00:35:04.573Z,13.60
2022-11-10T00:39:14.385Z,13.60
2022-11-10T00:43:31.270Z,13.60
2022-11-10T00:47:40.706Z,13.60
2022-11-10T00:51:50.126Z,13.50
2022-11-10T00:55:59.605Z,13.50
2022-11-10T01:00:13.481Z,13.50
2022-11-10T01:04:23.947Z,13.60
2022-11-10T01:08:35.089Z,13.60
2022-11-10T01:12:44.547Z,13.60
2022-11-10T01:16:56.396Z,13.60
2022-11-10T01:21:06.179Z,13.60
2022-11-10T01:25:15.808Z,13.50
2022-11-10T01:29:28.757Z,13.50
2022-11-10T01:33:40.231Z,13.60
2022-11-10T01:37:50.785Z,13.60
2022-11-10T01:42:00.374Z,13.60
2022-11-10T01:46:11.934Z,13.60
2022-11-10T01:50:24.313Z,13.60
2022-11-10T01:54:38.196Z,13.60
2022-11-10T01:58:55.281Z,13.50
2022-11-10T02:03:11.658Z,13.50
2022-11-10T02:07:24.760Z,13.40
2022-11-10T02:11:36.534Z,13.40
2022-11-10T02:15:46.099Z,13.40
2022-11-10T02:19:55.566Z,13.40
2022-11-10T02:24:07.226Z,13.40
2022-11-10T02:28:17.139Z,13.40
2022-11-10T02:32:27.204Z,13.40
2022-11-10T02:36:36.592Z,13.40
2022-11-10T02:40:47.386Z,13.40
2022-11-10T02:44:57.118Z,13.40
2022-11-10T02:49:06.532Z,13.40
2022-11-10T02:53:15.809Z,13.40
2022-11-10T02:57:26.627Z,13.30
2022-11-10T03:01:36.031Z,13.30
2022-11-10T03:05:45.438Z,13.40
2022-11-10T03:09:54.725Z,13.30
2022-11-10T03:14:05.580Z,13.30
2022-11-10T03:18:14.811Z,13.30
2022-11-10T03:22:25.995Z,13.30
2022-11-10T03:26:35.836Z,13.30
2022-11-10T03:30:47.457Z,13.30
2022-11-10T03:34:57.410Z,13.30
2022-11-10T03:39:09.623Z,13.30
2022-11-10T03:43:19.228Z,13.30
2022-11-10T03:47:30.552Z,13.30
2022-11-10T03:51:40.113Z,13.30
2022-11-10T03:55:49.451Z,13.30
2022-11-10T03:59:58.684Z,13.30
2022-11-10T04:04:30.165Z,13.30
2022-11-10T04:08:57.264Z,13.30
2022-11-10T04:13:24.179Z,13.30
2022-11-10T04:17:39.362Z,13.30
2022-11-10T04:21:51.323Z,13.30
2022-11-10T04:26:20.479Z,13.40
2022-11-10T04:30:29.736Z,13.50
2022-11-10T04:34:38.816Z,13.50
2022-11-10T04:38:50.642Z,13.40
2022-11-10T04:43:00.156Z,13.40
2022-11-10T04:47:12.168Z,13.40
2022-11-10T04:51:24.416Z,13.40
2022-11-10T04:55:36.434Z,13.40
2022-11-10T04:59:50.243Z,13.30
2022-11-10T05:03:59.843Z,13.30
2022-11-10T05:08:09.877Z,13.30
2022-11-10T05:12:22.435Z,13.30
2022-11-10T05:16:33.919Z,13.30
2022-11-10T05:20:43.280Z,13.30
2022-11-10T05:24:52.443Z,13.40
2022-11-10T05:29:03.265Z,13.40
2022-11-10T05:33:13.065Z,13.30
2022-11-10T05:37:22.022Z,13.40
2022-11-10T05:41:31.319Z,13.40
2022-11-10T05:45:42.485Z,13.50
2022-11-10T05:49:51.768Z,13.50
2022-11-10T05:54:00.862Z,13.60
2022-11-10T05:58:10.820Z,13.60
2022-11-10T06:02:21.214Z,13.60
2022-11-10T06:06:30.550Z,13.80
2022-11-10T06:10:40.719Z,13.80
2022-11-10T06:14:50.011Z,13.90
2022-11-10T06:19:03.137Z,14.00
2022-11-10T06:23:14.068Z,14.00
2022-11-10T06:27:23.079Z,14.00
2022-11-10T06:31:32.483Z,14.00
2022-11-10T06:35:42.998Z,14.00
2022-11-10T06:39:51.979Z,14.00
2022-11-10T06:44:01.387Z,13.90
2022-11-10T06:48:14.776Z,13.90
2022-11-10T06:52:25.948Z,13.90
2022-11-10T06:56:35.307Z,13.90
2022-11-10T07:00:44.472Z,13.90
2022-11-10T07:04:53.518Z,14.00
2022-11-10T07:09:04.378Z,14.00
2022-11-10T07:13:13.637Z,14.00
2022-11-10T07:17:23.161Z,14.00
2022-11-10T07:21:32.338Z,14.00
2022-11-10T07:25:43.181Z,14.00
2022-11-10T07:29:52.657Z,14.10
2022-11-10T07:34:01.693Z,14.20
2022-11-10T07:38:13.075Z,14.30
2022-11-10T07:42:23.641Z,14.30
2022-11-10T07:46:32.901Z,14.40
2022-11-10T07:50:42.052Z,14.40
2022-11-10T07:54:51.453Z,14.50
2022-11-10T07:59:02.092Z,14.60
2022-11-10T08:03:14.062Z,14.70
2022-11-10T08:07:23.766Z,14.80
2022-11-10T08:11:33.046Z,14.80
2022-11-10T08:15:45.274Z,14.90
2022-11-10T08:19:54.489Z,14.90
2022-11-10T08:24:03.592Z,14.90
2022-11-10T08:28:16.229Z,15.00
2022-11-10T08:32:27.978Z,15.00
2022-11-10T08:36:40.318Z,15.00
2022-11-10T08:40:49.615Z,15.00
2022-11-10T08:44:59.020Z,15.10
2022-11-10T08:49:18.520Z,15.20
2022-11-10T08:53:31.093Z,15.30
2022-11-10T09:06:38.902Z,15.60
2022-11-10T09:22:19.645Z,15.90
2022-11-10T09:26:28.728Z,15.90
2022-11-10T09:30:37.964Z,15.90
2022-11-10T09:35:08.582Z,16.10
2022-11-10T09:39:27.019Z,16.10
2022-11-10T09:43:50.617Z,16.30
2022-11-10T09:48:05.521Z,16.30
2022-11-10T09:52:16.560Z,16.40
2022-11-10T09:56:34.989Z,16.50
2022-11-10T10:00:50.290Z,16.50
2022-11-10T10:51:33.481Z,16.70
2022-11-10T10:56:01.320Z,16.70
2022-11-10T11:05:01.607Z,16.70
2022-11-10T11:14:45.984Z,16.90
2022-11-10T11:18:57.933Z,16.90
2022-11-10T11:28:04.140Z,17.00
2022-11-10T11:32:47.143Z,17.00
2022-11-10T12:15:39.998Z,17.60
